createdAt,value
2022-10-11T00:00:11.735Z,5.87
2022-10-11T00:02:38.602Z,6.50
2022-10-11T00:05:05.860Z,5.83
2022-10-11T00:07:32.788Z,5.63
2022-10-11T00:09:59.611Z,4.80
2022-10-11T00:12:26.593Z,4.97
2022-10-11T00:14:53.402Z,7.37
2022-10-11T00:17:20.461Z,5.50
2022-10-11T00:19:47.282Z,5.27
2022-10-11T00:22:14.225Z,5.50
2022-10-11T00:24:41.163Z,5.23
2022-10-11T00:27:08.100Z,5.30
2022-10-11T00:29:34.918Z,5.00
2022-10-11T00:32:02.205Z,6.37
2022-10-11T00:34:29.035Z,5.80
2022-10-11T00:36:55.929Z,5.43
2022-10-11T00:39:22.810Z,4.73
2022-10-11T00:41:49.941Z,5.00
2022-10-11T00:44:23.517Z,5.50
2022-10-11T00:47:05.096Z,5.47
2022-10-11T00:49:41.094Z,5.30
2022-10-11T00:52:23.016Z,4.83
2022-10-11T00:54:50.770Z,5.60
2022-10-11T00:57:23.196Z,5.60
2022-10-11T00:59:54.032Z,5.00
2022-10-11T01:02:23.173Z,4.77
2022-10-11T01:05:05.594Z,5.50
2022-10-11T01:07:39.171Z,6.23
2022-10-11T01:10:06.190Z,4.87
2022-10-11T01:12:33.423Z,5.90
2022-10-11T01:15:05.539Z,6.03
2022-10-11T01:17:41.719Z,6.97
2022-10-11T01:20:26.799Z,6.30
2022-10-11T01:23:30.044Z,6.13
2022-10-11T01:26:15.591Z,5.83
2022-10-11T01:28:48.056Z,6.07
2022-10-11T01:31:24.954Z,5.20
2022-10-11T01:34:05.381Z,6.63
2022-10-11T01:36:35.038Z,6.50
2022-10-11T01:39:13.387Z,5.90
2022-10-11T01:41:50.067Z,5.50
2022-10-11T01:44:17.705Z,6.20
2022-10-11T01:46:46.947Z,5.90
2022-10-11T01:49:14.199Z,5.97
2022-10-11T01:51:47.449Z,6.70
2022-10-11T01:54:17.421Z,5.83
2022-10-11T01:57:06.024Z,5.23
2022-10-11T01:59:53.818Z,4.60
2022-10-11T02:02:41.847Z,5.20
2022-10-11T02:05:28.572Z,5.77
2022-10-11T02:08:07.359Z,5.43
2022-10-11T02:10:34.193Z,6.07
2022-10-11T02:13:08.173Z,5.70
2022-10-11T02:15:38.573Z,5.80
2022-10-11T02:18:10.222Z,5.50
2022-10-11T02:20:39.767Z,4.90
2022-10-11T02:23:13.429Z,5.20
2022-10-11T02:25:40.540Z,5.40
2022-10-11T02:28:15.509Z,6.20
2022-10-11T02:30:44.266Z,5.70
2022-10-11T02:33:17.777Z,5.97
2022-10-11T02:35:49.465Z,6.20
2022-10-11T02:38:29.777Z,5.47
2022-10-11T02:41:07.383Z,5.10
2022-10-11T02:43:39.588Z,4.80
2022-10-11T02:46:08.730Z,5.40
2022-10-11T02:48:36.685Z,5.50
2022-10-11T02:51:04.884Z,4.60
2022-10-11T02:53:32.437Z,5.10
2022-10-11T02:55:59.646Z,4.90
2022-10-11T02:58:29.275Z,4.53
2022-10-11T03:00:56.093Z,5.23
2022-10-11T03:03:23.004Z,4.90
2022-10-11T03:05:49.834Z,5.10
2022-10-11T03:08:17.277Z,5.00
2022-10-11T03:10:44.307Z,4.60
2022-10-11T03:13:17.236Z,5.77
2022-10-11T03:16:02.642Z,5.20
2022-10-11T03:18:30.998Z,5.50
2022-10-11T03:20:57.895Z,5.00
2022-10-11T03:23:24.992Z,5.10
2022-10-11T03:25:52.170Z,6.03
2022-10-11T03:28:19.601Z,4.87
2022-10-11T03:30:50.774Z,4.70
2022-10-11T03:33:18.082Z,5.10
2022-10-11T03:35:46.619Z,5.40
2022-10-11T03:38:17.760Z,5.00
2022-10-11T03:40:45.165Z,3.90
2022-10-11T03:43:12.336Z,4.07
2022-10-11T03:45:42.312Z,4.40
2022-10-11T03:48:09.808Z,5.00
2022-10-11T03:50:37.178Z,3.93
2022-10-11T03:53:05.119Z,4.20
2022-10-11T03:55:32.187Z,5.10
2022-10-11T03:57:59.251Z,6.07
2022-10-11T04:00:26.358Z,4.83
2022-10-11T04:02:53.129Z,3.93
2022-10-11T04:05:20.179Z,4.97
2022-10-11T04:07:47.045Z,5.30
2022-10-11T04:10:14.309Z,5.60
2022-10-11T04:12:41.120Z,4.30
2022-10-11T04:15:08.544Z,4.67
2022-10-11T04:17:35.390Z,4.67
2022-10-11T04:20:02.201Z,4.53
2022-10-11T04:22:29.121Z,4.10
2022-10-11T04:24:55.995Z,4.43
2022-10-11T04:27:22.846Z,4.73
2022-10-11T04:29:49.629Z,4.87
2022-10-11T04:32:16.620Z,4.53
2022-10-11T04:34:43.468Z,4.97
2022-10-11T04:37:10.337Z,4.70
2022-10-11T04:39:38.200Z,5.20
2022-10-11T04:42:05.397Z,5.93
2022-10-11T04:44:32.233Z,4.90
2022-10-11T04:46:59.120Z,6.00
2022-10-11T04:49:27.850Z,5.90
2022-10-11T04:51:54.664Z,4.73
2022-10-11T04:54:21.501Z,5.67
2022-10-11T04:56:48.437Z,4.77
2022-10-11T04:59:15.280Z,5.20
2022-10-11T05:01:42.146Z,5.13
2022-10-11T05:04:09.197Z,5.70
2022-10-11T05:06:35.954Z,5.30
2022-10-11T05:09:02.823Z,5.63
2022-10-11T05:11:29.677Z,4.80
2022-10-11T05:13:56.720Z,5.20
2022-10-11T05:16:24.133Z,5.27
2022-10-11T05:18:50.979Z,5.80
2022-10-11T05:21:21.158Z,4.90
2022-10-11T05:23:49.491Z,5.63
2022-10-11T05:26:17.257Z,5.07
2022-10-11T05:28:44.700Z,5.10
2022-10-11T05:31:11.844Z,4.50
2022-10-11T05:33:38.962Z,4.73
2022-10-11T05:36:07.454Z,5.40
2022-10-11T05:38:34.738Z,5.00
2022-10-11T05:41:02.811Z,5.30
2022-10-11T05:43:30.443Z,5.70
2022-10-11T05:45:57.797Z,5.00
2022-10-11T05:48:26.702Z,4.93
2022-10-11T05:50:58.677Z,4.60
2022-10-11T05:53:25.748Z,5.40
2022-10-11T05:55:52.529Z,5.00
2022-10-11T05:58:19.503Z,4.63
2022-10-11T06:00:46.387Z,4.67
2022-10-11T06:03:15.926Z,7.80
2022-10-11T06:05:43.168Z,18.30
2022-10-11T06:08:11.851Z,8.80
2022-10-11T06:10:38.930Z,7.10
2022-10-11T06:13:06.765Z,5.77
2022-10-11T06:15:34.419Z,6.73
2022-10-11T06:18:01.637Z,5.93
2022-10-11T06:20:28.984Z,6.00
2022-10-11T06:22:55.938Z,5.50
2022-10-11T06:25:23.101Z,5.23
2022-10-11T06:27:49.929Z,5.50
2022-10-11T06:30:17.008Z,5.93
2022-10-11T06:32:44.035Z,4.70
2022-10-11T06:35:10.929Z,5.30
2022-10-11T06:37:37.783Z,4.30
2022-10-11T06:40:06.249Z,3.67
2022-10-11T06:42:33.021Z,4.00
2022-10-11T06:44:59.795Z,3.67
2022-10-11T06:47:26.601Z,4.00
2022-10-11T06:49:53.470Z,2.67
2022-10-11T06:52:20.285Z,3.53
2022-10-11T06:54:47.105Z,4.50
2022-10-11T06:57:13.954Z,4.17
2022-10-11T06:59:40.749Z,4.53
2022-10-11T07:02:08.792Z,9.30
2022-10-11T07:04:35.875Z,7.07
2022-10-11T07:07:02.730Z,5.13
2022-10-11T07:09:30.845Z,5.10
2022-10-11T07:11:57.796Z,5.07
2022-10-11T07:14:24.603Z,4.80
2022-10-11T07:16:51.525Z,4.87
2022-10-11T07:19:19.044Z,5.17
2022-10-11T07:21:45.977Z,5.13
2022-10-11T07:24:12.964Z,5.30
2022-10-11T07:26:40.226Z,4.87
2022-10-11T07:29:09.046Z,5.90
2022-10-11T07:31:41.524Z,4.97
2022-10-11T07:34:09.866Z,4.43
2022-10-11T07:36:37.044Z,5.93
2022-10-11T07:39:07.379Z,5.47
2022-10-11T07:41:35.577Z,6.57
2022-10-11T07:44:03.970Z,5.40
2022-10-11T07:46:31.475Z,5.47
2022-10-11T07:48:58.373Z,6.17
2022-10-11T07:51:25.685Z,5.10
2022-10-11T07:53:56.854Z,5.17
2022-10-11T07:56:28.500Z,5.97
2022-10-11T07:58:58.130Z,5.00
2022-10-11T08:01:26.505Z,5.57
2022-10-11T08:03:54.153Z,5.77
2022-10-11T08:06:23.180Z,5.03
2022-10-11T08:08:50.191Z,6.13
2022-10-11T08:11:22.526Z,5.70
2022-10-11T08:13:49.583Z,5.93
2022-10-11T08:16:16.944Z,7.57
2022-10-11T08:18:43.789Z,5.77
2022-10-11T08:21:12.651Z,6.77
2022-10-11T08:23:40.102Z,6.70
2022-10-11T08:26:08.218Z,6.20
2022-10-11T08:28:35.734Z,7.07
2022-10-11T08:31:02.941Z,7.13
2022-10-11T08:33:31.071Z,7.20
2022-10-11T08:35:58.522Z,7.60
2022-10-11T08:38:25.471Z,8.20
2022-10-11T08:40:55.720Z,6.37
2022-10-11T08:43:28.743Z,6.93
2022-10-11T08:45:59.822Z,7.13
2022-10-11T08:48:34.949Z,7.63
2022-10-11T08:51:06.350Z,9.03
2022-10-11T08:53:51.809Z,8.13
2022-10-11T08:56:20.945Z,7.20
2022-10-11T08:59:09.086Z,7.37
2022-10-11T09:01:36.143Z,8.90
2022-10-11T09:04:03.711Z,6.77
2022-10-11T09:07:02.607Z,9.00
2022-10-11T09:09:57.681Z,8.97
2022-10-11T09:12:40.957Z,7.57
2022-10-11T09:15:27.240Z,7.00
2022-10-11T09:18:27.077Z,7.30
2022-10-11T09:21:15.130Z,7.30
2022-10-11T09:23:50.617Z,7.23
2022-10-11T09:26:30.601Z,6.50
2022-10-11T09:29:21.492Z,5.43
2022-10-11T09:31:57.147Z,6.00
2022-10-11T09:34:33.663Z,5.47
2022-10-11T09:37:15.502Z,6.80
2022-10-11T09:39:50.736Z,5.33
2022-10-11T09:42:17.596Z,5.00
2022-10-11T09:44:50.278Z,4.83
2022-10-11T09:47:24.084Z,5.37
2022-10-11T09:49:59.577Z,3.80
2022-10-11T09:52:27.224Z,5.77
2022-10-11T09:55:01.929Z,3.83
2022-10-11T09:57:31.886Z,4.90
2022-10-11T10:00:25.246Z,5.67
2022-10-11T10:02:57.323Z,3.30
2022-10-11T10:05:29.144Z,4.30
2022-10-11T10:08:05.023Z,3.30
2022-10-11T10:10:49.463Z,3.03
2022-10-11T10:13:22.187Z,2.90
2022-10-11T10:15:55.679Z,3.60
2022-10-11T10:18:24.690Z,2.80
2022-10-11T10:20:57.744Z,3.30
2022-10-11T10:23:28.964Z,2.67
2022-10-11T10:26:18.630Z,2.60
2022-10-11T10:28:57.571Z,2.27
2022-10-11T10:31:40.261Z,2.70
2022-10-11T10:34:27.924Z,3.43
2022-10-11T10:37:00.240Z,3.03
2022-10-11T10:39:41.808Z,2.37
2022-10-11T10:42:19.611Z,2.80
2022-10-11T10:44:52.162Z,2.37
2022-10-11T10:47:40.336Z,1.60
2022-10-11T10:50:24.225Z,2.00
2022-10-11T10:53:39.561Z,2.40
2022-10-11T10:56:15.530Z,3.37
2022-10-11T10:58:51.605Z,1.90
2022-10-11T11:01:28.571Z,2.23
2022-10-11T11:04:13.846Z,2.87
2022-10-11T11:07:10.171Z,2.17
2022-10-11T11:09:55.441Z,2.77
2022-10-11T11:12:28.977Z,1.90
2022-10-11T11:15:26.414Z,1.90
2022-10-11T11:18:40.165Z,1.93
2022-10-11T11:22:01.330Z,2.50
2022-10-11T11:24:57.303Z,1.40
2022-10-11T11:27:56.543Z,1.70
2022-10-11T11:30:51.090Z,5.60
2022-10-11T11:33:44.004Z,1.20
2022-10-11T11:36:27.632Z,2.13
2022-10-11T11:39:02.178Z,2.57
2022-10-11T11:41:39.102Z,2.07
2022-10-11T11:44:15.033Z,3.23
2022-10-11T11:46:49.993Z,2.27
2022-10-11T11:49:32.352Z,2.03
2022-10-11T11:52:00.443Z,2.23
2022-10-11T11:54:38.716Z,1.70
2022-10-11T11:57:39.414Z,1.40
2022-10-11T12:00:18.854Z,1.70
2022-10-11T12:02:57.888Z,1.47
2022-10-11T12:05:28.908Z,2.00
2022-10-11T12:08:00.757Z,1.50
2022-10-11T12:10:53.072Z,1.53
2022-10-11T12:13:31.988Z,1.63
2022-10-11T12:16:13.563Z,1.73
2022-10-11T12:19:00.795Z,1.37
2022-10-11T12:21:39.543Z,1.70
2022-10-11T12:24:06.294Z,2.40
2022-10-11T12:26:36.778Z,1.83
2022-10-11T12:29:36.022Z,1.87
2022-10-11T12:32:02.811Z,1.30
2022-10-11T12:34:36.585Z,2.40
2022-10-11T12:37:18.874Z,2.20
2022-10-11T12:39:56.979Z,2.40
2022-10-11T12:42:23.761Z,1.73
2022-10-11T12:45:32.795Z,1.70
2022-10-11T12:48:10.664Z,1.17
2022-10-11T12:50:37.449Z,1.60
2022-10-11T12:53:19.286Z,2.57
2022-10-11T12:56:05.120Z,2.53
2022-10-11T12:58:41.707Z,2.40
2022-10-11T13:01:19.294Z,2.53
2022-10-11T13:03:57.331Z,3.23
2022-10-11T13:06:33.361Z,1.90
2022-10-11T13:09:11.523Z,2.00
2022-10-11T13:11:45.468Z,1.63
2022-10-11T13:14:22.104Z,2.47
2022-10-11T13:17:15.728Z,1.30
2022-10-11T13:19:43.398Z,2.40
2022-10-11T13:22:23.015Z,2.03
2022-10-11T13:24:55.254Z,2.80
2022-10-11T13:27:25.847Z,1.80
2022-10-11T13:29:59.290Z,1.57
2022-10-11T13:32:30.583Z,1.60
2022-10-11T13:35:01.113Z,1.43
2022-10-11T13:37:29.987Z,2.40
2022-10-11T13:39:58.477Z,2.20
2022-10-11T13:42:32.160Z,2.17
2022-10-11T13:45:00.156Z,2.00
2022-10-11T13:47:30.044Z,1.30
2022-10-11T13:50:15.617Z,2.13
2022-10-11T13:52:56.961Z,1.73
2022-10-11T13:55:28.607Z,1.60
2022-10-11T13:57:57.639Z,1.73
2022-10-11T14:00:29.393Z,1.93
2022-10-11T14:03:07.662Z,1.50
2022-10-11T14:05:41.274Z,2.20
2022-10-11T14:08:24.646Z,2.07
2022-10-11T14:10:56.750Z,2.77
2022-10-11T14:13:43.161Z,1.50
2022-10-11T14:16:12.808Z,1.60
2022-10-11T14:18:47.550Z,1.30
2022-10-11T14:21:20.385Z,2.00
2022-10-11T14:23:50.977Z,2.00
2022-10-11T14:26:19.235Z,1.60
2022-10-11T14:28:58.721Z,1.50
2022-10-11T14:31:29.748Z,2.30
2022-10-11T14:33:57.420Z,2.00
2022-10-11T14:36:24.565Z,1.70
2022-10-11T14:38:52.367Z,1.90
2022-10-11T14:41:19.153Z,2.63
2022-10-11T14:43:45.989Z,1.83
2022-10-11T14:46:27.182Z,2.80
2022-10-11T14:48:56.361Z,2.27
2022-10-11T14:51:29.475Z,1.57
2022-10-11T14:53:56.421Z,1.33
2022-10-11T14:56:23.427Z,1.50
2022-10-11T14:58:50.232Z,2.03
2022-10-11T15:01:17.776Z,1.53
2022-10-11T15:03:44.764Z,1.90
2022-10-11T15:06:21.613Z,2.70
2022-10-11T15:08:48.754Z,1.47
2022-10-11T15:11:18.675Z,1.40
2022-10-11T15:13:46.046Z,1.50
2022-10-11T15:16:15.271Z,1.63
2022-10-11T15:18:42.751Z,1.73
2022-10-11T15:21:13.889Z,1.60
2022-10-11T15:23:40.725Z,2.47
2022-10-11T15:26:09.640Z,1.90
2022-10-11T15:28:36.532Z,1.53
2022-10-11T15:31:03.480Z,2.43
2022-10-11T15:33:30.288Z,2.00
2022-10-11T15:35:57.081Z,1.40
2022-10-11T15:38:25.337Z,1.57
2022-10-11T15:40:52.983Z,1.20
2022-10-11T15:43:24.512Z,1.30
2022-10-11T15:45:51.960Z,1.70
2022-10-11T15:48:21.016Z,2.10
2022-10-11T15:50:48.226Z,2.17
2022-10-11T15:53:24.853Z,1.50
2022-10-11T15:55:53.710Z,2.50
2022-10-11T15:58:30.009Z,2.10
2022-10-11T16:01:00.485Z,2.10
2022-10-11T16:03:30.056Z,1.40
2022-10-11T16:06:02.502Z,1.90
2022-10-11T16:08:31.704Z,1.97
2022-10-11T16:10:59.156Z,1.80
2022-10-11T16:13:25.973Z,1.40
2022-10-11T16:15:52.920Z,1.77
2022-10-11T16:18:22.149Z,1.67
2022-10-11T16:20:51.963Z,1.77
2022-10-11T16:23:21.311Z,1.43
2022-10-11T16:26:06.573Z,1.23
2022-10-11T16:28:33.910Z,2.70
2022-10-11T16:31:05.453Z,1.67
2022-10-11T16:33:32.351Z,1.23
2022-10-11T16:36:19.605Z,1.67
2022-10-11T16:38:46.461Z,1.97
2022-10-11T16:41:13.274Z,9.93
2022-10-11T16:43:40.088Z,18.63
2022-10-11T16:46:07.452Z,2.40
2022-10-11T16:48:34.610Z,1.77
2022-10-11T16:51:08.265Z,3.03
2022-10-11T16:53:35.452Z,2.00
2022-10-11T16:56:10.173Z,1.90
2022-10-11T16:58:37.555Z,1.77
2022-10-11T17:01:09.335Z,1.80
2022-10-11T17:03:37.169Z,1.50
2022-10-11T17:06:05.642Z,3.93
2022-10-11T17:08:32.729Z,11.10
2022-10-11T17:10:59.735Z,8.60
2022-10-11T17:13:27.200Z,3.67
2022-10-11T17:15:54.164Z,6.17
2022-10-11T17:18:21.033Z,3.10
2022-10-11T17:20:47.884Z,2.27
2022-10-11T17:23:14.917Z,2.77
2022-10-11T17:25:46.632Z,6.10
2022-10-11T17:28:13.894Z,7.10
2022-10-11T17:30:42.028Z,77.90
2022-10-11T17:33:09.024Z,16.03
2022-10-11T17:35:36.057Z,4.60
2022-10-11T17:38:06.434Z,5.93
2022-10-11T17:40:33.637Z,5.00
2022-10-11T17:43:00.495Z,4.10
2022-10-11T17:45:27.372Z,4.00
2022-10-11T17:47:54.248Z,3.13
2022-10-11T17:50:21.056Z,3.40
2022-10-11T17:52:47.992Z,3.40
2022-10-11T17:55:15.153Z,3.20
2022-10-11T17:57:42.152Z,4.13
2022-10-11T18:00:09.738Z,4.40
2022-10-11T18:02:36.538Z,4.67
2022-10-11T18:05:07.054Z,4.00
2022-10-11T18:07:34.436Z,4.33
2022-10-11T18:10:01.249Z,3.97
2022-10-11T18:12:28.142Z,5.00
2022-10-11T18:14:54.947Z,4.07
2022-10-11T18:17:21.761Z,5.47
2022-10-11T18:19:48.562Z,5.83
2022-10-11T18:22:15.384Z,8.00
2022-10-11T18:24:42.221Z,15.03
2022-10-11T18:27:09.087Z,17.13
2022-10-11T18:29:35.876Z,16.67
2022-10-11T18:32:02.769Z,10.03
2022-10-11T18:34:29.606Z,10.83
2022-10-11T18:36:56.468Z,8.10
2022-10-11T18:39:23.264Z,6.73
2022-10-11T18:41:50.469Z,6.17
2022-10-11T18:44:17.337Z,7.23
2022-10-11T18:46:45.237Z,5.80
2022-10-11T18:49:13.491Z,5.63
2022-10-11T18:51:42.368Z,7.57
2022-10-11T18:54:13.964Z,6.10
2022-10-11T18:56:43.927Z,5.80
2022-10-11T18:59:11.201Z,7.83
2022-10-11T19:01:40.673Z,4.80
2022-10-11T19:04:09.234Z,4.90
2022-10-11T19:06:41.823Z,4.83
2022-10-11T19:09:13.883Z,5.90
2022-10-11T19:11:41.804Z,5.47
2022-10-11T19:14:11.768Z,6.10
2022-10-11T19:16:41.173Z,5.63
2022-10-11T19:19:09.565Z,6.10
2022-10-11T19:21:37.156Z,6.50
2022-10-11T19:24:04.140Z,6.53
2022-10-11T19:26:39.245Z,5.90
2022-10-11T19:29:11.351Z,7.13
2022-10-11T19:31:43.424Z,6.30
2022-10-11T19:34:10.749Z,6.93
2022-10-11T19:36:38.769Z,6.80
2022-10-11T19:39:06.465Z,6.93
2022-10-11T19:41:33.725Z,7.00
2022-10-11T19:44:00.702Z,9.30
2022-10-11T19:46:49.876Z,17.33
2022-10-11T19:51:47.067Z,10.80
2022-10-11T19:54:14.787Z,11.90
2022-10-11T19:56:42.643Z,13.40
2022-10-11T19:59:11.241Z,12.53
2022-10-11T20:01:38.808Z,10.53
2022-10-11T20:04:08.676Z,10.50
2022-10-11T20:06:39.137Z,8.90
2022-10-11T20:09:29.857Z,9.33
2022-10-11T20:11:57.475Z,9.70
2022-10-11T20:14:24.886Z,8.60
2022-10-11T20:16:52.121Z,8.00
2022-10-11T20:19:19.038Z,8.33
2022-10-11T20:21:48.736Z,9.00
2022-10-11T20:24:15.531Z,8.23
2022-10-11T20:26:42.509Z,7.97
2022-10-11T20:29:09.453Z,7.80
2022-10-11T20:31:41.886Z,8.70
2022-10-11T20:34:11.279Z,8.00
2022-10-11T20:36:38.216Z,8.47
2022-10-11T20:39:06.385Z,9.07
2022-10-11T20:41:37.262Z,9.00
2022-10-11T20:44:04.809Z,10.83
2022-10-11T20:46:33.727Z,11.47
2022-10-11T20:49:03.845Z,12.50
2022-10-11T20:51:35.675Z,15.50
2022-10-11T20:54:04.277Z,14.70
2022-10-11T20:56:31.885Z,15.20
2022-10-11T20:58:58.832Z,15.30
2022-10-11T21:01:32.030Z,13.10
2022-10-11T21:04:00.174Z,12.87
2022-10-11T21:06:27.919Z,13.90
2022-10-11T21:08:56.544Z,14.33
2022-10-11T21:11:33.574Z,18.70
2022-10-11T21:14:02.734Z,21.07
2022-10-11T21:16:29.971Z,19.33
2022-10-11T21:18:58.222Z,17.73
2022-10-11T21:21:26.243Z,18.43
2022-10-11T21:23:57.526Z,19.10
2022-10-11T21:27:33.522Z,18.20
2022-10-11T21:29:58.142Z,17.20
2022-10-11T21:32:25.237Z,16.90
2022-10-11T21:34:52.100Z,16.57
2022-10-11T21:37:19.068Z,16.20
2022-10-11T21:39:45.893Z,16.07
2022-10-11T21:42:12.778Z,15.77
2022-10-11T21:44:43.071Z,16.27
2022-10-11T21:47:10.541Z,16.30
2022-10-11T21:49:37.366Z,14.50
2022-10-11T21:52:04.743Z,14.03
2022-10-11T21:54:31.653Z,15.03
2022-10-11T21:56:58.671Z,14.93
2022-10-11T21:59:25.573Z,12.27
2022-10-11T22:01:52.621Z,14.03
2022-10-11T22:04:19.617Z,12.70
2022-10-11T22:06:46.534Z,11.50
2022-10-11T22:09:13.369Z,10.90
2022-10-11T22:11:40.397Z,11.87
2022-10-11T22:14:07.936Z,11.80
2022-10-11T22:16:35.355Z,11.00
2022-10-11T22:19:02.411Z,11.50
2022-10-11T22:21:29.317Z,9.67
2022-10-11T22:23:56.355Z,12.00
2022-10-11T22:26:25.873Z,11.00
2022-10-11T22:28:53.504Z,11.90
2022-10-11T22:31:21.147Z,10.33
2022-10-11T22:33:48.459Z,10.57
2022-10-11T22:36:19.359Z,9.30
2022-10-11T22:38:47.083Z,10.07
2022-10-11T22:41:13.937Z,9.53
2022-10-11T22:43:40.911Z,8.87
2022-10-11T22:46:08.241Z,9.20
2022-10-11T22:48:35.535Z,9.40
2022-10-11T22:51:02.909Z,8.40
2022-10-11T22:53:30.502Z,9.67
2022-10-11T22:55:57.557Z,8.83
2022-10-11T22:58:24.376Z,8.63
2022-10-11T23:00:51.169Z,7.57
2022-10-11T23:03:18.755Z,8.17
2022-10-11T23:05:57.028Z,8.03
2022-10-11T23:08:24.019Z,6.83
2022-10-11T23:10:50.964Z,7.23
2022-10-11T23:13:17.804Z,6.83
2022-10-11T23:15:44.640Z,8.30
2022-10-11T23:18:11.637Z,7.70
2022-10-11T23:20:39.564Z,7.00
2022-10-11T23:23:07.078Z,7.50
2022-10-11T23:25:34.063Z,7.90
2022-10-11T23:28:01.446Z,7.43
2022-10-11T23:30:29.375Z,7.87
2022-10-11T23:32:56.275Z,7.30
2022-10-11T23:35:23.302Z,7.20
2022-10-11T23:37:50.105Z,6.87
2022-10-11T23:40:17.229Z,7.10
2022-10-11T23:42:44.188Z,6.57
2022-10-11T23:45:11.149Z,6.87
2022-10-11T23:47:38.066Z,5.83
2022-10-11T23:50:05.752Z,6.73
2022-10-11T23:52:32.604Z,6.90
2022-10-11T23:54:59.432Z,6.10
2022-10-11T23:57:26.267Z,6.43
2022-10-11T23:59:53.145Z,6.70
